Time;durP1;ratioP1;P1;durP2;ratioP2;P2;SDS_P1;SDS_P2;PMS_P1;PMS_P2;Temp;Humidity;BMP_temperature;BMP_pressure;BME280_temperature;BME280_humidity;BME280_pressure;Samples;Min_cycle;Max_cycle;Signal;HPM_P1;HPM_P2
2022/11/14 00:00:28;;;;;;;3.65;2.28;;;;;;;18.06;47.64;101987.44;4809143;29;20041;-95
2022/11/14 00:02:54;;;;;;;4.57;2.22;;;;;;;18.09;47.61;101989.75;4802300;29;20416;-95
2022/11/14 00:05:20;;;;;;;3.40;2.28;;;;;;;18.06;47.56;101987.44;4820580;29;20031;-95
2022/11/14 00:07:46;;;;;;;4.53;2.42;;;;;;;18.08;47.60;101990.81;4817790;29;20022;-95
2022/11/14 00:10:15;;;;;;;3.30;2.20;;;;;;;18.08;47.40;101982.69;4815971;29;20027;-96
2022/11/14 00:12:41;;;;;;;4.20;2.45;;;;;;;18.11;47.64;101995.81;4818232;29;20030;-95
2022/11/14 00:15:07;;;;;;;4.72;2.60;;;;;;;18.06;47.64;101982.91;4819857;29;20105;-95
2022/11/14 00:17:33;;;;;;;4.68;2.47;;;;;;;18.04;47.36;101976.84;4802942;29;20058;-95
2022/11/14 00:19:59;;;;;;;4.68;2.30;;;;;;;18.09;47.45;101987.06;4802421;29;20023;-95
2022/11/14 00:22:24;;;;;;;4.38;2.40;;;;;;;18.14;47.73;101993.56;4809654;29;20037;-95
2022/11/14 00:24:50;;;;;;;5.22;2.83;;;;;;;18.11;47.48;101983.13;4799889;29;20030;-95
2022/11/14 00:27:16;;;;;;;5.68;2.95;;;;;;;18.02;47.59;101966.22;4816687;29;20036;-95
2022/11/14 00:29:44;;;;;;;5.53;2.50;;;;;;;18.06;47.60;101982.91;4820472;29;20026;-95
2022/11/14 00:32:10;;;;;;;5.53;3.03;;;;;;;18.10;47.51;101978.75;4807094;29;20270;-94
2022/11/14 00:34:38;;;;;;;4.38;2.63;;;;;;;18.06;47.60;101966.66;4827686;29;20064;-94
2022/11/14 00:37:04;;;;;;;5.20;2.95;;;;;;;18.06;47.60;101969.38;4823900;29;20043;-96
2022/11/14 00:39:29;;;;;;;4.60;2.92;;;;;;;18.04;47.66;101957.06;4828644;29;20407;-95
2022/11/14 00:41:55;;;;;;;6.30;3.42;;;;;;;18.04;47.71;101960.63;4808369;29;20031;-95
2022/11/14 00:44:21;;;;;;;5.53;3.08;;;;;;;18.09;47.54;101962.72;4825834;29;20039;-95
2022/11/14 00:46:50;;;;;;;6.07;2.97;;;;;;;18.07;47.45;101962.91;4820469;29;20027;-95
2022/11/14 00:49:16;;;;;;;5.45;3.10;;;;;;;18.08;47.62;101953.78;4820691;29;20027;-95
2022/11/14 00:51:41;;;;;;;5.22;3.38;;;;;;;18.07;47.61;101968.31;4821756;29;20455;-95
2022/11/14 00:54:07;;;;;;;5.07;3.28;;;;;;;18.06;47.56;101955.84;4807958;29;20277;-94
2022/11/14 00:56:33;;;;;;;5.07;3.03;;;;;;;18.16;47.55;101969.84;4810962;29;20034;-96
2022/11/14 00:58:59;;;;;;;6.40;3.33;;;;;;;18.16;47.56;101977.97;4807443;29;20033;-95
2022/11/14 01:01:24;;;;;;;6.57;3.05;;;;;;;18.04;47.74;101946.25;4820530;29;20084;-94
2022/11/14 01:03:56;;;;;;;4.28;2.80;;;;;;;18.06;47.75;101963.09;4807459;29;20039;-95
2022/11/14 01:06:22;;;;;;;6.25;3.50;;;;;;;18.10;47.60;101951.69;4801287;29;20288;-95
2022/11/14 01:08:49;;;;;;;5.32;3.00;;;;;;;18.08;47.75;101944.81;4799971;29;20562;-95
2022/11/14 01:11:25;;;;;;;6.60;3.45;;;;;;;18.04;47.66;101935.41;4801264;29;20019;-95
2022/11/14 01:13:54;;;;;;;6.47;3.38;;;;;;;18.05;47.67;101943.34;4797757;29;20070;-95
2022/11/14 01:16:23;;;;;;;7.82;4.18;;;;;;;18.13;47.56;101943.19;4785436;29;20123;-94
2022/11/14 01:18:49;;;;;;;5.25;3.22;;;;;;;18.05;47.55;101927.09;4775642;29;20095;-95
2022/11/14 01:21:14;;;;;;;6.47;3.30;;;;;;;18.07;47.62;101929.63;4778359;30;20416;-95
2022/11/14 01:23:40;;;;;;;7.30;3.60;;;;;;;18.05;47.67;101932.53;4775301;29;20039;-95
2022/11/14 01:26:10;;;;;;;5.57;3.63;;;;;;;18.02;47.68;101931.06;4770603;29;20071;-95
2022/11/14 01:28:36;;;;;;;6.93;3.40;;;;;;;18.07;47.68;101940.44;4775657;29;20035;-94
2022/11/14 01:31:22;;;;;;;6.68;3.58;;;;;;;18.09;47.76;101946.47;4775591;29;20122;-95
2022/11/14 01:33:50;;;;;;;6.55;3.63;;;;;;;18.07;47.75;101943.16;4774129;29;20291;-95
2022/11/14 01:36:16;;;;;;;7.88;3.85;;;;;;;18.05;47.67;101937.09;4775717;29;20035;-95
2022/11/14 01:38:42;;;;;;;5.72;3.40;;;;;;;18.01;47.60;101933.97;4771372;29;20389;-95
2022/11/14 01:41:11;;;;;;;5.93;3.33;;;;;;;18.14;47.66;101958.41;4780842;29;20556;-95
2022/11/14 01:43:40;;;;;;;5.72;3.25;;;;;;;18.13;47.98;101958.59;4806379;29;20057;-95
2022/11/14 01:46:23;;;;;;;6.15;3.42;;;;;;;18.14;47.73;101969.22;4806170;29;20087;-95
2022/11/14 01:49:10;;;;;;;5.63;3.30;;;;;;;18.16;47.63;101950.06;4804791;29;20063;-95
2022/11/14 01:52:04;;;;;;;5.97;3.15;;;;;;;18.04;47.59;101941.69;4806547;29;20038;-95
2022/11/14 01:54:33;;;;;;;5.13;3.33;;;;;;;18.01;47.84;101942.09;4808269;29;20042;-94
2022/11/14 01:57:00;;;;;;;6.05;3.28;;;;;;;18.10;47.66;101951.69;4805966;29;20038;-95
2022/11/14 01:59:37;;;;;;;5.53;3.30;;;;;;;18.06;47.84;101938.75;4802977;29;20099;-95
2022/11/14 02:02:05;;;;;;;6.28;3.40;;;;;;;18.05;47.76;101948.75;4801301;29;20492;-94
2022/11/14 02:04:43;;;;;;;5.68;3.60;;;;;;;18.07;47.77;101946.69;4795222;29;20065;-94
2022/11/14 02:07:08;;;;;;;6.70;3.30;;;;;;;18.02;47.79;101938.31;4811681;29;20431;-95
2022/11/14 02:09:35;;;;;;;4.97;2.92;;;;;;;17.98;47.76;101937.88;4776120;29;20026;-95
2022/11/14 02:12:02;;;;;;;6.00;3.35;;;;;;;18.08;47.82;101942.94;4783071;29;20039;-95
2022/11/14 02:14:28;;;;;;;6.15;3.58;;;;;;;18.09;47.74;101936.50;4820338;29;20049;-95
2022/11/14 02:16:54;;;;;;;7.15;3.70;;;;;;;18.05;47.62;101937.94;4822756;29;20043;-95
2022/11/14 02:19:19;;;;;;;6.63;3.38;;;;;;;18.14;47.74;101947.56;4824652;29;20023;-94
2022/11/14 02:21:45;;;;;;;6.80;3.28;;;;;;;18.07;47.72;101930.44;4822836;29;20479;-95
2022/11/14 02:24:14;;;;;;;5.97;3.15;;;;;;;18.02;47.81;101922.09;4815094;29;20458;-95
2022/11/14 02:26:40;;;;;;;6.25;3.60;;;;;;;18.10;47.69;101924.63;4827130;29;20038;-95
2022/11/14 02:29:07;;;;;;;5.20;3.00;;;;;;;18.09;47.75;101923.00;4807472;29;20122;-95
2022/11/14 02:31:33;;;;;;;6.03;3.35;;;;;;;18.05;47.55;101932.53;4803191;29;20037;-95
2022/11/14 02:33:58;;;;;;;5.63;3.53;;;;;;;18.14;47.74;101947.56;4823786;29;20031;-94
2022/11/14 02:36:24;;;;;;;6.82;3.50;;;;;;;18.06;47.89;101923.38;4828525;29;20083;-95
2022/11/14 02:38:50;;;;;;;8.40;3.45;;;;;;;18.07;47.91;101908.81;4829737;29;20153;-95
2022/11/14 02:41:16;;;;;;;5.35;2.95;;;;;;;18.02;47.74;101916.69;4807292;29;20033;-95
2022/11/14 02:43:42;;;;;;;6.57;3.30;;;;;;;18.00;47.87;101903.34;4823929;29;20037;-96
2022/11/14 02:46:10;;;;;;;5.13;3.15;;;;;;;18.10;47.87;101929.22;4801592;29;20042;-95
2022/11/14 02:48:39;;;;;;;4.90;3.00;;;;;;;18.15;47.72;101937.56;4827140;29;20035;-96
2022/11/14 02:51:08;;;;;;;5.90;3.38;;;;;;;18.07;47.85;101906.09;4828300;29;20035;-95
2022/11/14 02:53:34;;;;;;;6.13;3.50;;;;;;;18.15;47.93;101921.34;4821097;29;20021;-95
2022/11/14 02:56:02;;;;;;;5.43;3.05;;;;;;;18.02;47.87;101901.31;4835108;29;20026;-96
2022/11/14 02:58:38;;;;;;;5.13;2.90;;;;;;;18.07;47.86;101907.97;4831763;29;20062;-95
2022/11/14 03:01:10;;;;;;;6.75;3.22;;;;;;;18.02;47.77;101890.47;4819935;29;20058;-96
2022/11/14 03:03:36;;;;;;;5.57;3.30;;;;;;;18.14;47.86;101904.28;4813255;29;20054;-95
2022/11/14 03:06:05;;;;;;;6.65;3.22;;;;;;;18.04;47.81;101893.00;4827782;29;20030;-95
2022/11/14 03:08:31;;;;;;;4.70;3.03;;;;;;;18.04;47.86;101890.28;4793398;29;20046;-95
2022/11/14 03:11:04;;;;;;;4.65;2.70;;;;;;;18.01;47.80;101894.22;4820815;29;20516;-95
2022/11/14 03:13:33;;;;;;;5.70;2.42;;;;;;;18.04;47.80;101886.72;4806768;29;20057;-95
2022/11/14 03:16:13;;;;;;;4.90;3.00;;;;;;;18.04;47.87;101893.00;4829453;29;20026;-95
2022/11/14 03:18:39;;;;;;;5.88;3.00;;;;;;;18.08;47.91;101888.84;4812315;29;20023;-96
2022/11/14 03:21:11;;;;;;;4.70;2.63;;;;;;;18.15;47.92;101911.34;4825509;29;20058;-95
2022/11/14 03:23:37;;;;;;;4.95;2.72;;;;;;;18.05;47.85;101897.34;4803683;29;20062;-95
2022/11/14 03:26:04;;;;;;;4.72;2.85;;;;;;;18.14;47.99;101898.88;4818675;29;20035;-95
2022/11/14 03:28:30;;;;;;;4.32;2.60;;;;;;;18.06;47.88;101890.06;4797246;29;20314;-94
2022/11/14 03:30:56;;;;;;;4.93;2.60;;;;;;;18.07;48.04;101891.75;4797258;29;20060;-95
2022/11/14 03:33:22;;;;;;;4.25;2.40;;;;;;;18.08;48.05;101894.25;4811137;29;20338;-95
2022/11/14 03:35:50;;;;;;;3.92;2.45;;;;;;;18.05;47.76;101894.66;4796225;29;20354;-94
2022/11/14 03:38:17;;;;;;;4.32;2.50;;;;;;;18.01;47.95;101882.56;4819545;29;20042;-95
2022/11/14 03:40:42;;;;;;;3.13;2.20;;;;;;;18.06;47.77;101890.06;4805186;29;20031;-94
2022/11/14 03:43:08;;;;;;;3.95;2.40;;;;;;;18.06;47.99;101882.81;4786204;29;20031;-94
2022/11/14 03:45:35;;;;;;;4.80;2.40;;;;;;;18.06;47.79;101890.91;4801431;29;20031;-94
2022/11/14 03:48:01;;;;;;;2.95;2.00;;;;;;;18.06;47.80;101882.81;4807330;29;20027;-95
2022/11/14 03:50:27;;;;;;;4.25;1.88;;;;;;;18.10;47.99;101884.06;4807045;29;20480;-94
2022/11/14 03:52:55;;;;;;;3.13;2.17;;;;;;;18.10;47.62;101892.19;4787136;29;20034;-95
2022/11/14 03:55:21;;;;;;;3.13;2.00;;;;;;;18.11;47.91;101874.06;4797547;29;20405;-94
2022/11/14 03:57:47;;;;;;;3.38;1.92;;;;;;;18.03;47.99;101880.50;4807214;29;20038;-94
2022/11/14 04:00:13;;;;;;;2.63;1.80;;;;;;;18.07;48.06;101884.44;4812605;29;20030;-95
2022/11/14 04:02:39;;;;;;;3.42;2.03;;;;;;;18.06;47.95;101871.97;4791449;29;20054;-95
2022/11/14 04:05:07;;;;;;;3.22;1.67;;;;;;;18.05;47.99;101864.88;4796382;29;20031;-93
2022/11/14 04:07:33;;;;;;;3.58;2.08;;;;;;;18.05;47.95;101855.94;4796288;29;20057;-94
2022/11/14 04:09:59;;;;;;;3.85;2.20;;;;;;;18.07;48.16;101860.09;4817447;29;20038;-95
2022/11/14 04:12:24;;;;;;;2.55;1.70;;;;;;;18.02;47.98;101860.72;4814249;29;20030;-95
2022/11/14 04:14:50;;;;;;;3.33;1.98;;;;;;;18.08;48.09;101856.38;4813897;29;20030;-95
2022/11/14 04:17:16;;;;;;;2.45;1.67;;;;;;;18.08;47.96;101867.19;4816972;29;20111;-94
2022/11/14 04:19:41;;;;;;;2.83;1.70;;;;;;;18.12;48.01;101871.16;4811568;29;20027;-94
2022/11/14 04:22:07;;;;;;;2.47;1.63;;;;;;;18.06;48.03;101854.88;4822380;29;20034;-95
2022/11/14 04:24:33;;;;;;;2.63;1.80;;;;;;;18.09;47.90;101852.66;4811816;29;20046;-95
2022/11/14 04:26:58;;;;;;;3.30;1.83;;;;;;;18.06;48.07;101842.22;4818709;29;20129;-95
2022/11/14 04:29:24;;;;;;;1.70;1.45;;;;;;;18.10;47.84;101848.88;4790098;29;20105;-94
2022/11/14 04:31:49;;;;;;;3.50;1.55;;;;;;;18.10;47.97;101843.47;4791820;29;20168;-94
2022/11/14 04:34:15;;;;;;;1.73;1.13;;;;;;;18.02;47.93;101830.97;4805929;29;20035;-95
2022/11/14 04:36:41;;;;;;;2.45;1.75;;;;;;;18.04;48.01;101836.19;4811401;29;20547;-94
2022/11/14 04:39:06;;;;;;;2.40;1.52;;;;;;;18.04;47.91;101832.63;4812549;29;20030;-94
2022/11/14 04:41:35;;;;;;;1.70;1.30;;;;;;;18.02;47.90;101835.53;4810340;29;20035;-94
2022/11/14 04:44:01;;;;;;;2.65;1.55;;;;;;;18.15;48.00;101851.81;4814451;29;20030;-94
2022/11/14 04:46:26;;;;;;;2.53;1.50;;;;;;;18.10;47.77;101846.19;4817971;29;20045;-94
2022/11/14 04:48:52;;;;;;;2.40;1.27;;;;;;;18.10;47.76;101832.66;4799193;29;20539;-94
2022/11/14 04:51:17;;;;;;;1.88;1.40;;;;;;;18.09;47.89;101825.59;4797548;29;20034;-94
2022/11/14 04:53:43;;;;;;;1.65;1.20;;;;;;;18.13;48.01;101832.25;4808332;29;20503;-94
2022/11/14 04:56:09;;;;;;;1.98;1.33;;;;;;;18.07;48.08;101824.94;4807545;29;20377;-95
2022/11/14 04:58:34;;;;;;;1.88;1.50;;;;;;;18.07;47.95;101833.06;4793994;29;20046;-93
2022/11/14 05:01:06;;;;;;;1.95;1.40;;;;;;;18.04;48.01;101817.25;4814048;29;20046;-94
2022/11/14 05:03:32;;;;;;;2.15;1.67;;;;;;;18.06;47.91;101815.16;4795190;29;20081;-94
2022/11/14 05:06:01;;;;;;;1.70;1.33;;;;;;;18.14;47.99;101827.66;4809196;29;20496;-95
2022/11/14 05:08:26;;;;;;;1.50;1.20;;;;;;;18.15;48.03;101826.66;4820342;29;20034;-95
2022/11/14 05:10:52;;;;;;;1.60;1.20;;;;;;;18.08;47.89;101799.56;4805026;29;20113;-95
2022/11/14 05:13:17;;;;;;;1.88;1.17;;;;;;;18.10;48.05;101813.72;4808477;29;20034;-95
2022/11/14 05:15:43;;;;;;;2.00;1.30;;;;;;;18.06;47.97;101807.06;4814768;29;20039;-95
2022/11/14 05:18:08;;;;;;;1.88;1.00;;;;;;;18.15;47.93;101819.34;4814376;29;20023;-95
2022/11/14 05:20:34;;;;;;;2.33;1.48;;;;;;;18.07;48.09;101805.19;4813304;29;20051;-95
2022/11/14 05:23:00;;;;;;;1.63;1.13;;;;;;;18.08;47.92;101813.09;4791420;29;20034;-94
2022/11/14 05:25:25;;;;;;;1.83;1.02;;;;;;;18.10;48.07;101815.59;4819789;29;20113;-94
2022/11/14 05:27:51;;;;;;;1.50;1.00;;;;;;;18.18;48.16;101815.41;4798756;29;20054;-94
2022/11/14 05:30:17;;;;;;;1.10;1.00;;;;;;;18.18;47.90;101812.72;4812351;29;20503;-95
2022/11/14 05:32:43;;;;;;;1.40;1.20;;;;;;;18.08;47.97;101801.44;4786328;29;20518;-94
2022/11/14 05:35:09;;;;;;;1.17;0.90;;;;;;;18.10;47.92;101799.38;4815741;29;20030;-94
2022/11/14 05:37:34;;;;;;;1.65;1.17;;;;;;;18.15;47.99;101811.22;4792303;29;20572;-93
2022/11/14 05:40:00;;;;;;;1.73;1.08;;;;;;;18.12;47.94;101803.53;4818954;29;20038;-94
2022/11/14 05:42:27;;;;;;;2.28;0.90;;;;;;;18.06;48.20;101792.66;4812559;29;20046;-95
2022/11/14 05:44:52;;;;;;;1.52;1.00;;;;;;;18.11;48.10;101807.28;4794755;29;20518;-95
2022/11/14 05:47:18;;;;;;;1.73;0.98;;;;;;;18.07;47.98;101803.28;4789755;29;20031;-94
2022/11/14 05:49:43;;;;;;;1.52;1.02;;;;;;;18.06;47.95;101790.81;4812900;29;20481;-95
2022/11/14 05:52:09;;;;;;;1.25;0.90;;;;;;;18.10;47.98;101811.00;4812673;29;20102;-94
2022/11/14 05:54:35;;;;;;;1.13;1.02;;;;;;;18.06;47.97;101798.94;4815371;29;20030;-94
2022/11/14 05:57:00;;;;;;;1.30;0.90;;;;;;;18.16;47.95;101818.31;4807928;29;20087;-94
2022/11/14 05:59:26;;;;;;;1.52;0.95;;;;;;;18.10;48.03;101802.91;4809759;29;20075;-94
2022/11/14 06:01:52;;;;;;;0.98;0.88;;;;;;;18.12;47.98;101819.75;4812509;29;20443;-94
2022/11/14 06:04:17;;;;;;;1.48;1.00;;;;;;;18.07;47.93;101822.22;4811117;29;20444;-96
2022/11/14 06:06:43;;;;;;;1.27;1.08;;;;;;;18.07;47.93;101802.47;4796583;29;20125;-95
2022/11/14 06:09:09;;;;;;;1.30;1.00;;;;;;;18.10;47.99;101804.78;4815223;29;20492;-94
2022/11/14 06:11:34;;;;;;;1.33;1.00;;;;;;;18.15;48.04;101819.34;4810091;29;20066;-94
2022/11/14 06:14:00;;;;;;;1.13;0.98;;;;;;;18.15;48.01;101807.72;4814355;29;20543;-95
2022/11/14 06:16:26;;;;;;;2.08;0.90;;;;;;;18.10;48.03;101802.91;4811707;29;20046;-95
2022/11/14 06:18:52;;;;;;;1.25;0.90;;;;;;;18.12;47.96;101808.94;4794407;29;20076;-95
2022/11/14 06:21:19;;;;;;;1.13;0.75;;;;;;;18.11;48.06;101801.88;4808097;29;20076;-95
2022/11/14 06:23:45;;;;;;;0.88;0.70;;;;;;;18.15;48.06;101808.53;4813339;29;20030;-93
2022/11/14 06:26:30;;;;;;;1.90;0.90;;;;;;;18.16;48.03;101812.91;4812512;29;20284;-94
2022/11/14 06:28:56;;;;;;;1.25;0.80;;;;;;;18.11;48.06;101793.75;4762903;29;20032;-95
2022/11/14 06:31:21;;;;;;;0.80;0.80;;;;;;;18.16;48.05;101815.63;4783809;29;20034;-95
2022/11/14 06:33:47;;;;;;;1.13;0.68;;;;;;;18.10;48.01;101807.47;4771511;29;20039;-94
2022/11/14 06:36:13;;;;;;;1.33;0.80;;;;;;;18.15;48.08;101811.22;4772747;29;20498;-95
2022/11/14 06:38:39;;;;;;;0.70;0.70;;;;;;;18.11;48.01;101807.28;4772452;29;20037;-95
2022/11/14 06:41:07;;;;;;;1.23;1.00;;;;;;;18.15;48.06;101810.41;4780188;29;20035;-95
2022/11/14 06:43:34;;;;;;;1.73;0.80;;;;;;;18.19;47.96;101827.91;4780300;29;20030;-95
2022/11/14 06:46:00;;;;;;;1.33;0.80;;;;;;;18.09;48.04;101798.53;4765589;29;20030;-94
2022/11/14 06:48:26;;;;;;;1.15;1.00;;;;;;;18.06;48.12;101801.66;4768204;29;20038;-96
2022/11/14 06:50:52;;;;;;;1.48;0.80;;;;;;;18.08;48.00;101807.69;4775926;29;20034;-95
2022/11/14 06:53:18;;;;;;;0.95;0.80;;;;;;;18.14;47.92;101814.13;4766963;29;20045;-93
2022/11/14 06:55:58;;;;;;;0.88;0.80;;;;;;;18.11;47.82;101804.56;4772316;29;20031;-94
2022/11/14 06:58:31;;;;;;;1.45;0.60;;;;;;;18.12;48.08;101797.28;4778728;29;20034;-94
2022/11/14 07:01:09;;;;;;;1.37;0.97;;;;;;;18.07;47.93;101795.19;4769755;29;20027;-94
2022/11/14 07:03:35;;;;;;;1.27;0.82;;;;;;;18.11;47.94;101799.16;4775240;29;20038;-94
2022/11/14 07:06:01;;;;;;;1.25;0.90;;;;;;;18.08;47.86;101801.44;4772844;29;20133;-95
2022/11/14 07:08:27;;;;;;;2.45;0.70;;;;;;;18.12;48.01;101794.56;4767029;29;20096;-95
2022/11/14 07:10:52;;;;;;;1.08;0.77;;;;;;;18.13;47.96;101799.78;4772013;29;20379;-96
2022/11/14 07:13:18;;;;;;;0.65;0.60;;;;;;;18.17;47.90;101806.44;4768814;29;20134;-95
2022/11/14 07:15:51;;;;;;;0.93;0.80;;;;;;;18.15;47.85;101808.53;4775595;29;20052;-95
2022/11/14 07:18:17;;;;;;;0.60;0.50;;;;;;;18.20;47.93;101808.75;4781771;29;20027;-95
2022/11/14 07:20:43;;;;;;;0.80;0.70;;;;;;;18.18;48.08;101808.13;4793819;29;20035;-94
2022/11/14 07:23:08;;;;;;;1.60;0.70;;;;;;;18.17;47.96;101802.91;4764901;29;20125;-95
2022/11/14 07:25:36;;;;;;;0.82;0.57;;;;;;;18.20;48.17;101795.22;4767195;29;20472;-94
2022/11/14 07:28:02;;;;;;;0.68;0.60;;;;;;;18.11;47.96;101784.78;4785567;29;20031;-94
2022/11/14 07:30:27;;;;;;;1.10;0.70;;;;;;;18.22;48.07;101802.31;4766225;29;20099;-94
2022/11/14 07:32:54;;;;;;;0.70;0.68;;;;;;;18.17;48.22;101794.81;4769355;29;20031;-95
2022/11/14 07:35:20;;;;;;;1.67;0.80;;;;;;;18.15;48.21;101802.28;4770713;29;20315;-94
2022/11/14 07:37:46;;;;;;;0.70;0.63;;;;;;;18.17;48.07;101795.63;4766785;29;20026;-94
2022/11/14 07:40:11;;;;;;;1.63;0.70;;;;;;;18.16;48.03;101799.38;4770483;29;20394;-96
2022/11/14 07:42:37;;;;;;;1.27;0.70;;;;;;;18.10;48.04;101785.84;4763820;29;20137;-94
2022/11/14 07:45:03;;;;;;;1.23;0.63;;;;;;;18.22;48.04;101794.19;4769249;29;20058;-94
2022/11/14 07:47:41;;;;;;;0.73;0.65;;;;;;;18.19;48.21;101793.53;4800587;29;20081;-94
2022/11/14 07:50:07;;;;;;;1.35;0.80;;;;;;;18.12;48.18;101775.63;4781031;29;20118;-94
2022/11/14 07:52:33;;;;;;;0.75;0.73;;;;;;;18.14;48.09;101774.41;4786283;29;20030;-94
2022/11/14 07:54:58;;;;;;;0.85;0.60;;;;;;;18.18;48.43;101785.66;4768029;29;20500;-94
2022/11/14 07:57:24;;;;;;;1.20;0.77;;;;;;;18.15;48.19;101773.34;4767939;29;20063;-94
2022/11/14 07:59:49;;;;;;;0.60;0.60;;;;;;;18.13;48.02;101764.63;4767120;29;20050;-95
2022/11/14 08:02:15;;;;;;;0.90;0.60;;;;;;;18.19;48.15;101777.31;4784992;29;20564;-94
2022/11/14 08:04:41;;;;;;;1.48;0.88;;;;;;;18.17;48.00;101768.56;4769046;29;20137;-95
2022/11/14 08:07:07;;;;;;;1.05;0.70;;;;;;;18.16;48.15;101766.91;4763054;29;20049;-95
2022/11/14 08:09:33;;;;;;;0.70;0.70;;;;;;;18.13;48.18;101756.50;4763415;29;20058;-93
2022/11/14 08:11:58;;;;;;;1.05;0.80;;;;;;;18.16;48.18;101757.94;4779674;29;20065;-94
2022/11/14 08:14:24;;;;;;;0.75;0.70;;;;;;;18.23;48.17;101771.50;4766899;29;20134;-95
2022/11/14 08:16:49;;;;;;;0.60;0.60;;;;;;;18.21;48.12;101758.16;4809506;29;20045;-94
2022/11/14 08:19:16;;;;;;;0.85;0.80;;;;;;;18.14;48.01;101758.19;4793046;29;20035;-93
2022/11/14 08:21:42;;;;;;;0.70;0.65;;;;;;;18.18;48.12;101754.00;4803545;29;20026;-94
2022/11/14 08:24:08;;;;;;;1.13;0.77;;;;;;;18.16;48.16;101744.41;4814499;29;20399;-94
2022/11/14 08:26:33;;;;;;;1.58;0.82;;;;;;;18.13;48.17;101740.28;4802203;29;20041;-95
2022/11/14 08:28:59;;;;;;;0.80;0.70;;;;;;;18.23;48.24;101757.97;4806467;29;20035;-93
2022/11/14 08:31:25;;;;;;;0.60;0.60;;;;;;;18.17;48.24;101746.94;4796121;29;20088;-95
2022/11/14 08:33:51;;;;;;;0.73;0.70;;;;;;;18.20;48.15;101748.41;4812514;29;20042;-94
2022/11/14 08:36:17;;;;;;;2.35;0.85;;;;;;;18.12;48.17;101743.19;4784917;29;20038;-94
2022/11/14 08:38:42;;;;;;;1.30;0.70;;;;;;;18.17;48.31;101741.50;4787619;29;20058;-94
2022/11/14 08:41:08;;;;;;;1.42;0.93;;;;;;;18.11;48.14;101725.25;4785484;29;20062;-94
2022/11/14 08:43:34;;;;;;;1.67;0.70;;;;;;;18.18;48.40;101736.97;4814419;29;20067;-94
2022/11/14 08:46:00;;;;;;;0.82;0.70;;;;;;;18.19;48.27;101733.19;4809127;29;20452;-94
2022/11/14 08:48:26;;;;;;;0.93;0.82;;;;;;;18.09;48.24;101721.94;4797549;29;20839;-95
2022/11/14 08:50:51;;;;;;;0.80;0.70;;;;;;;18.12;48.26;101726.94;4790729;29;20046;-94
2022/11/14 08:53:17;;;;;;;1.25;0.63;;;;;;;18.12;48.18;101721.53;4806576;29;20048;-94
2022/11/14 08:55:46;;;;;;;0.70;0.70;;;;;;;18.18;48.31;101731.53;4791959;29;20037;-95
2022/11/14 08:58:11;;;;;;;0.80;0.65;;;;;;;18.24;48.20;101743.41;4798941;29;20035;-96
2022/11/14 09:00:37;;;;;;;0.82;0.70;;;;;;;18.12;48.23;101716.13;4794523;29;20547;-95
2022/11/14 09:03:09;;;;;;;1.13;0.75;;;;;;;18.20;48.52;101727.59;4814965;29;20122;-95
2022/11/14 09:05:35;;;;;;;0.95;0.68;;;;;;;18.17;48.45;101727.16;4817772;29;20440;-94
2022/11/14 09:08:01;;;;;;;0.52;0.52;;;;;;;18.10;48.36;101697.38;4799710;29;20109;-94
2022/11/14 09:10:27;;;;;;;0.95;0.80;;;;;;;18.19;48.27;101716.97;4814608;29;20039;-95
2022/11/14 09:12:56;;;;;;;0.80;0.80;;;;;;;18.14;48.23;101700.50;4796348;29;20394;-94
2022/11/14 09:15:22;;;;;;;1.10;0.63;;;;;;;18.14;48.37;101704.06;4807508;29;20069;-95
2022/11/14 09:17:48;;;;;;;0.98;0.80;;;;;;;18.18;48.41;101705.31;4809241;29;20126;-95
2022/11/14 09:20:14;;;;;;;1.35;0.65;;;;;;;18.18;48.29;101694.50;4781460;29;20467;-95
2022/11/14 09:22:39;;;;;;;1.30;0.60;;;;;;;18.13;48.34;101696.97;4815070;29;20556;-95
2022/11/14 09:25:08;;;;;;;0.73;0.60;;;;;;;18.12;48.29;101702.59;4814893;29;20114;-95
2022/11/14 09:27:34;;;;;;;1.48;0.75;;;;;;;18.18;48.33;101699.06;4801308;29;20022;-95
2022/11/14 09:29:59;;;;;;;1.75;0.70;;;;;;;18.14;48.08;101704.06;4794500;29;20050;-94
2022/11/14 09:32:25;;;;;;;0.70;0.70;;;;;;;18.16;48.44;101702.00;4812003;29;20034;-94
2022/11/14 09:34:50;;;;;;;0.60;0.60;;;;;;;18.15;48.41;101700.31;4814282;29;20151;-94
2022/11/14 09:37:16;;;;;;;0.65;0.60;;;;;;;18.10;48.55;101681.16;4797946;29;20094;-95
2022/11/14 09:39:42;;;;;;;1.15;0.80;;;;;;;18.15;48.49;101692.19;4815106;29;20070;-94
2022/11/14 09:42:27;;;;;;;2.90;0.60;;;;;;;18.24;48.42;101697.41;4812694;29;20504;-95
2022/11/14 09:44:57;;;;;;;0.60;0.60;;;;;;;18.24;48.45;101698.22;4808712;29;20496;-95
2022/11/14 09:47:40;;;;;;;1.83;0.60;;;;;;;18.25;48.38;101693.66;4784898;29;20113;-95
2022/11/14 09:50:27;;;;;;;1.40;0.80;;;;;;;18.24;48.63;101692.81;4796879;29;20116;-95
2022/11/14 09:52:55;;;;;;;0.88;0.80;;;;;;;18.23;48.44;101698.44;4798613;29;20094;-95
2022/11/14 09:55:28;;;;;;;0.60;0.60;;;;;;;18.24;48.57;101687.41;4811345;29;20065;-95
2022/11/14 09:57:54;;;;;;;1.88;0.60;;;;;;;18.21;48.57;101674.28;4788351;29;20515;-94
2022/11/14 10:00:21;;;;;;;0.70;0.70;;;;;;;18.15;48.64;101669.72;4794632;29;20030;-95
2022/11/14 10:03:09;;;;;;;1.10;0.68;;;;;;;18.20;48.49;101669.94;4779049;29;20046;-93
2022/11/14 10:06:01;;;;;;;1.52;0.77;;;;;;;18.24;48.71;101670.34;4815099;29;20053;-94
2022/11/14 10:08:30;;;;;;;0.70;0.70;;;;;;;18.24;48.58;101665.75;4801910;29;20548;-95
2022/11/14 10:11:15;;;;;;;0.80;0.60;;;;;;;18.14;48.46;101655.38;4787261;29;20027;-95
2022/11/14 10:13:46;;;;;;;0.55;0.55;;;;;;;18.12;48.63;101654.72;4801790;29;20077;-94
2022/11/14 10:16:11;;;;;;;0.60;0.57;;;;;;;18.26;48.47;101670.97;4803204;29;20495;-95
2022/11/14 10:18:49;;;;;;;0.95;0.75;;;;;;;18.22;48.72;101656.19;4813166;29;20034;-95
2022/11/14 10:21:36;;;;;;;1.17;0.70;;;;;;;18.24;48.55;101654.94;4820963;29;20023;-94
2022/11/14 10:24:39;;;;;;;0.65;0.60;;;;;;;18.25;48.68;101659.31;4807070;29;20328;-94
2022/11/14 10:27:10;;;;;;;2.30;0.73;;;;;;;18.19;48.66;101652.84;4805502;29;20085;-95
2022/11/14 10:29:57;;;;;;;0.70;0.63;;;;;;;18.13;48.69;101637.47;4783132;29;20050;-95
2022/11/14 10:32:41;;;;;;;0.55;0.52;;;;;;;18.24;48.54;101648.69;4800962;29;20026;-94
2022/11/14 10:35:17;;;;;;;1.60;0.90;;;;;;;18.23;48.61;101650.59;4819476;29;20101;-94
2022/11/14 10:38:06;;;;;;;0.82;0.70;;;;;;;18.24;48.76;101640.59;4791074;29;20027;-95
2022/11/14 10:40:44;;;;;;;2.25;0.82;;;;;;;18.25;48.91;101642.22;4798959;29;20030;-95
2022/11/14 10:43:25;;;;;;;0.60;0.60;;;;;;;18.25;48.77;101634.97;4795687;29;20087;-94
2022/11/14 10:46:14;;;;;;;0.60;0.60;;;;;;;18.25;48.69;101634.97;4811382;29;20034;-94
2022/11/14 10:48:45;;;;;;;0.88;0.70;;;;;;;18.26;48.75;101633.09;4804618;29;20054;-94
2022/11/14 10:51:33;;;;;;;2.03;0.55;;;;;;;18.26;48.77;101624.97;4781688;29;20033;-94
2022/11/14 10:54:26;;;;;;;0.82;0.70;;;;;;;18.24;48.57;101621.66;4811091;29;20038;-94
2022/11/14 10:56:53;;;;;;;0.80;0.60;;;;;;;18.25;48.79;101623.28;4827299;29;20026;-95
2022/11/14 10:59:19;;;;;;;1.88;0.70;;;;;;;18.25;48.88;101618.72;4797605;29;20026;-95
2022/11/14 11:01:56;;;;;;;0.95;0.60;;;;;;;18.24;48.75;101619.75;4795177;29;20206;-94
2022/11/14 11:04:28;;;;;;;1.35;0.90;;;;;;;18.26;48.61;101619.56;4798771;29;20046;-94
2022/11/14 11:13:10;;;;;;;0.50;0.50;;;;;;;18.24;48.86;101605.41;4801351;29;20054;-94
2022/11/14 11:15:40;;;;;;;0.60;0.60;;;;;;;18.24;48.88;101605.41;4798580;29;20036;-95
2022/11/14 11:18:22;;;;;;;0.85;0.77;;;;;;;18.24;48.95;101597.28;4808965;29;20030;-94
2022/11/14 11:21:02;;;;;;;0.63;0.60;;;;;;;18.25;48.90;101596.22;4795553;29;20038;-94
2022/11/14 11:23:28;;;;;;;0.50;0.50;;;;;;;18.25;48.79;101591.69;4807886;29;20035;-94
2022/11/14 11:26:08;;;;;;;0.50;0.50;;;;;;;18.24;48.94;101589.19;4812858;29;20030;-94
2022/11/14 11:28:34;;;;;;;0.80;0.70;;;;;;;18.26;48.72;101581.69;4826305;29;20023;-94
2022/11/14 11:31:05;;;;;;;0.60;0.60;;;;;;;18.25;48.91;101580.00;4797556;29;20532;-95
2022/11/14 11:33:34;;;;;;;0.95;0.57;;;;;;;18.26;48.92;101576.25;4796298;29;20084;-94
2022/11/14 11:36:02;;;;;;;1.80;0.90;;;;;;;18.24;48.88;101573.75;4793571;29;20088;-94